Time;durP1;ratioP1;P1;durP2;ratioP2;P2;SDS_P1;SDS_P2;PMS_P1;PMS_P2;Temp;Humidity;BMP_temperature;BMP_pressure;BME280_temperature;BME280_humidity;BME280_pressure;Samples;Min_cycle;Max_cycle;Signal;HPM_P1;HPM_P2
2021/01/04 00:00:53;;;;;;;9.10;8.07;;;2.80;99.90;;;;;;5058828;28;20505;-73
2021/01/04 00:03:38;;;;;;;9.37;8.47;;;2.80;99.90;;;;;;5074851;28;20448;-73
2021/01/04 00:06:13;;;;;;;9.87;8.97;;;2.80;99.90;;;;;;5075579;28;20440;-73
2021/01/04 00:08:55;;;;;;;9.50;8.13;;;2.80;99.90;;;;;;5072028;28;20886;-73
2021/01/04 00:11:49;;;;;;;10.10;9.20;;;2.80;99.90;;;;;;5072462;28;20538;-73
2021/01/04 00:14:15;;;;;;;9.47;8.50;;;2.80;99.90;;;;;;5071153;28;20444;-73
2021/01/04 00:17:17;;;;;;;9.63;8.83;;;2.70;99.90;;;;;;5072254;28;20795;-73
2021/01/04 00:20:04;;;;;;;10.10;9.20;;;2.70;99.90;;;;;;5054519;28;20651;-73
2021/01/04 00:22:38;;;;;;;10.20;9.30;;;2.70;99.90;;;;;;5072306;28;20516;-73
2021/01/04 00:25:49;;;;;;;11.40;10.30;;;2.70;99.90;;;;;;5071970;28;20479;-73
2021/01/04 00:28:20;;;;;;;12.03;10.90;;;2.70;99.90;;;;;;5050970;28;20463;-73
2021/01/04 00:31:03;;;;;;;11.37;10.27;;;2.60;99.90;;;;;;5053112;28;20452;-73
2021/01/04 00:33:37;;;;;;;11.40;9.87;;;2.60;99.90;;;;;;5071367;28;20439;-73
2021/01/04 00:36:13;;;;;;;11.03;10.03;;;2.60;99.90;;;;;;5074062;28;20453;-73
2021/01/04 00:39:16;;;;;;;10.17;9.17;;;2.60;99.90;;;;;;5071799;28;20443;-73
2021/01/04 00:42:08;;;;;;;11.70;10.60;;;2.60;99.90;;;;;;5074035;28;20413;-73
2021/01/04 00:44:44;;;;;;;11.60;10.50;;;2.60;99.90;;;;;;5043347;28;20521;-73
2021/01/04 00:47:44;;;;;;;12.47;11.27;;;2.60;99.90;;;;;;5072318;28;20777;-73
2021/01/04 00:50:43;;;;;;;10.90;9.83;;;2.50;99.90;;;;;;5071842;28;20457;-73
2021/01/04 00:53:38;;;;;;;13.13;11.83;;;2.60;99.90;;;;;;5073026;28;20439;-73
2021/01/04 00:56:25;;;;;;;12.60;11.40;;;2.60;99.90;;;;;;5052862;28;20475;-73
2021/01/04 00:59:16;;;;;;;11.77;10.57;;;2.60;99.90;;;;;;5071276;28;20441;-73
2021/01/04 01:02:09;;;;;;;12.63;11.43;;;2.60;99.90;;;;;;5070222;28;20438;-73
2021/01/04 01:04:46;;;;;;;11.27;10.20;;;2.60;99.90;;;;;;5074808;28;20472;-73
2021/01/04 01:07:22;;;;;;;13.43;12.13;;;2.60;99.90;;;;;;5072262;28;20500;-73
2021/01/04 01:09:52;;;;;;;10.67;9.70;;;2.60;99.90;;;;;;5053357;28;20456;-73
2021/01/04 01:12:36;;;;;;;12.27;11.17;;;2.50;99.90;;;;;;5069338;28;20513;-73
2021/01/04 01:15:19;;;;;;;12.77;11.57;;;2.60;99.90;;;;;;5073205;28;20449;-73
2021/01/04 01:18:18;;;;;;;12.40;11.20;;;2.60;99.90;;;;;;5070158;28;20446;-73
2021/01/04 01:20:51;;;;;;;12.60;11.27;;;2.60;99.90;;;;;;5076112;28;20464;-73
2021/01/04 01:23:19;;;;;;;13.30;11.87;;;2.60;99.90;;;;;;5070839;28;20945;-73
2021/01/04 01:25:56;;;;;;;11.77;10.60;;;2.50;99.90;;;;;;5070806;28;20453;-73
2021/01/04 01:28:40;;;;;;;12.97;11.77;;;2.50;99.90;;;;;;5070575;28;20462;-73
2021/01/04 01:31:33;;;;;;;12.60;11.30;;;2.60;99.90;;;;;;5071045;28;20441;-73
2021/01/04 01:34:07;;;;;;;13.93;12.43;;;2.60;99.90;;;;;;5068486;28;20452;-73
2021/01/04 01:37:00;;;;;;;13.90;12.50;;;2.60;99.90;;;;;;5077422;28;20444;-73
2021/01/04 01:40:03;;;;;;;11.93;10.63;;;2.60;99.90;;;;;;5052415;28;20457;-73
2021/01/04 01:42:57;;;;;;;13.67;12.27;;;2.60;99.90;;;;;;5070265;28;20453;-73
2021/01/04 01:45:29;;;;;;;12.77;11.63;;;2.60;99.90;;;;;;5074549;28;20460;-73
2021/01/04 01:48:10;;;;;;;13.07;11.70;;;2.70;99.90;;;;;;5050991;28;20503;-73
2021/01/04 01:51:06;;;;;;;12.17;11.03;;;2.60;99.90;;;;;;5072296;28;21159;-73
2021/01/04 01:53:37;;;;;;;12.00;10.90;;;2.60;99.90;;;;;;4992686;28;20455;-73
2021/01/04 01:56:36;;;;;;;12.63;11.37;;;2.70;99.90;;;;;;5070440;28;20446;-73
2021/01/04 01:59:19;;;;;;;11.97;10.83;;;2.70;99.90;;;;;;5068807;28;20438;-73
2021/01/04 02:02:03;;;;;;;11.87;10.77;;;2.70;99.90;;;;;;5073733;28;20525;-73
2021/01/04 02:04:45;;;;;;;12.20;11.00;;;2.70;99.90;;;;;;5051976;28;20444;-73
2021/01/04 02:07:24;;;;;;;11.97;10.77;;;2.70;99.90;;;;;;5077888;28;20803;-73
2021/01/04 02:09:57;;;;;;;12.07;10.97;;;2.70;99.90;;;;;;5070013;28;20442;-73
2021/01/04 02:12:50;;;;;;;11.77;10.67;;;2.70;99.90;;;;;;5071421;28;20434;-73
2021/01/04 02:15:22;;;;;;;11.97;10.77;;;2.70;99.90;;;;;;5052768;28;20541;-73
2021/01/04 02:18:09;;;;;;;12.33;11.20;;;2.70;99.90;;;;;;5071343;28;20433;-73
2021/01/04 02:20:53;;;;;;;11.30;10.30;;;2.70;99.90;;;;;;5074193;28;20445;-73
2021/01/04 02:23:40;;;;;;;11.80;10.70;;;2.70;99.90;;;;;;5053132;28;20440;-73
2021/01/04 02:26:26;;;;;;;12.60;10.47;;;2.70;99.90;;;;;;5069047;28;20433;-73
2021/01/04 02:29:14;;;;;;;11.13;10.10;;;2.60;99.90;;;;;;5073295;28;20476;-73
2021/01/04 02:31:42;;;;;;;11.27;10.27;;;2.70;99.90;;;;;;5068167;28;20541;-73
2021/01/04 02:34:11;;;;;;;10.80;9.80;;;2.70;99.90;;;;;;5070527;28;20433;-73
2021/01/04 02:36:40;;;;;;;11.33;10.13;;;2.70;99.90;;;;;;5079327;28;20881;-73
2021/01/04 02:39:18;;;;;;;11.70;10.60;;;2.70;99.90;;;;;;5050456;28;20442;-73
2021/01/04 02:41:56;;;;;;;10.30;9.30;;;2.60;99.90;;;;;;5069852;28;20836;-73
2021/01/04 02:44:25;;;;;;;12.80;11.50;;;2.70;99.90;;;;;;5072580;28;20433;-73
2021/01/04 02:47:14;;;;;;;11.33;10.33;;;2.70;99.90;;;;;;5072418;28;20945;-73
2021/01/04 02:50:10;;;;;;;11.40;10.30;;;2.70;99.90;;;;;;5070071;28;20448;-73
2021/01/04 02:53:12;;;;;;;11.90;10.70;;;2.70;99.90;;;;;;5050779;28;20434;-73
2021/01/04 02:55:50;;;;;;;11.63;10.43;;;2.60;99.90;;;;;;5050942;28;20440;-73
2021/01/04 02:58:55;;;;;;;11.07;9.97;;;2.60;99.90;;;;;;5068450;28;20430;-73
2021/01/04 03:01:40;;;;;;;10.80;9.70;;;2.60;99.90;;;;;;5061038;28;20445;-73
2021/01/04 03:04:09;;;;;;;12.97;11.67;;;2.60;99.90;;;;;;5069223;28;20611;-73
2021/01/04 03:07:05;;;;;;;12.87;11.53;;;2.60;99.90;;;;;;5068805;28;20786;-73
2021/01/04 03:09:33;;;;;;;14.00;11.90;;;2.70;99.90;;;;;;5057617;28;20472;-73
2021/01/04 03:12:06;;;;;;;13.40;11.67;;;2.70;99.90;;;;;;5068629;28;20440;-73
2021/01/04 03:14:41;;;;;;;13.03;11.70;;;2.60;99.90;;;;;;5068171;28;20453;-73
2021/01/04 03:17:27;;;;;;;13.73;12.43;;;2.60;99.90;;;;;;5068974;28;20926;-73
2021/01/04 03:19:59;;;;;;;13.67;11.43;;;2.60;99.90;;;;;;5053557;28;21220;-73
2021/01/04 03:22:25;;;;;;;13.87;12.37;;;2.60;99.90;;;;;;5068776;28;20437;-73
2021/01/04 03:24:52;;;;;;;12.90;11.60;;;2.60;99.90;;;;;;5051451;28;20474;-72
2021/01/04 03:27:25;;;;;;;11.97;10.73;;;2.60;99.90;;;;;;5069627;28;20329;-72
2021/01/04 03:29:50;;;;;;;12.13;11.00;;;2.60;99.90;;;;;;5069951;28;20436;-72
2021/01/04 03:32:17;;;;;;;12.40;11.20;;;2.60;99.90;;;;;;5072045;28;20445;-73
2021/01/04 03:34:43;;;;;;;12.13;11.03;;;2.60;99.90;;;;;;5075928;28;20214;-72
2021/01/04 03:37:08;;;;;;;12.67;11.47;;;2.70;99.90;;;;;;5051296;28;20457;-72
2021/01/04 03:39:34;;;;;;;11.30;10.30;;;2.70;99.90;;;;;;5070850;28;20469;-72
2021/01/04 03:42:00;;;;;;;11.83;10.83;;;2.70;99.90;;;;;;5072541;28;20286;-72
2021/01/04 03:44:28;;;;;;;10.90;9.90;;;2.70;99.90;;;;;;5076636;28;20317;-72
2021/01/04 03:46:54;;;;;;;10.60;9.50;;;2.70;99.90;;;;;;5074013;28;20465;-72
2021/01/04 03:49:19;;;;;;;11.43;10.43;;;2.70;99.90;;;;;;5057212;28;20508;-72
2021/01/04 03:51:59;;;;;;;10.40;9.40;;;2.60;99.90;;;;;;5071304;28;20497;-72
2021/01/04 03:54:25;;;;;;;10.27;9.27;;;2.60;99.90;;;;;;5054371;28;20191;-72
2021/01/04 03:56:52;;;;;;;10.83;9.80;;;2.60;99.90;;;;;;5084193;28;20514;-72
2021/01/04 03:59:17;;;;;;;11.33;10.23;;;2.60;99.90;;;;;;5072705;28;20444;-72
2021/01/04 04:01:48;;;;;;;10.83;9.50;;;2.50;99.90;;;;;;5057298;28;20426;-72
2021/01/04 04:04:13;;;;;;;11.90;10.80;;;2.50;99.90;;;;;;5074012;28;20176;-72
2021/01/04 04:06:39;;;;;;;11.40;10.30;;;2.50;99.90;;;;;;5074151;28;20437;-72
2021/01/04 04:09:04;;;;;;;10.07;9.07;;;2.50;99.90;;;;;;5071614;28;20567;-72
2021/01/04 04:11:30;;;;;;;14.67;11.90;;;2.40;99.90;;;;;;5071834;28;20592;-73
2021/01/04 04:13:55;;;;;;;12.37;11.17;;;2.40;99.90;;;;;;5072428;28;20222;-72
2021/01/04 04:16:21;;;;;;;12.40;11.10;;;2.30;99.90;;;;;;5071672;28;20632;-73
2021/01/04 04:18:46;;;;;;;14.07;12.80;;;2.30;99.90;;;;;;5075342;28;20191;-73
2021/01/04 04:21:14;;;;;;;13.07;11.87;;;2.30;99.90;;;;;;5073191;28;20672;-74
2021/01/04 04:23:40;;;;;;;13.13;11.73;;;2.30;99.90;;;;;;5071484;28;20211;-73
2021/01/04 04:26:05;;;;;;;13.20;11.80;;;2.30;99.90;;;;;;5071821;28;21326;-73
2021/01/04 04:28:31;;;;;;;13.80;12.30;;;2.30;99.90;;;;;;5075448;28;20521;-74
2021/01/04 04:30:56;;;;;;;14.43;12.90;;;2.30;99.90;;;;;;5078858;28;20195;-73
2021/01/04 04:33:22;;;;;;;12.90;11.60;;;2.30;99.90;;;;;;5057804;28;20184;-73
2021/01/04 04:35:51;;;;;;;14.40;12.83;;;2.20;99.90;;;;;;5077084;28;20318;-73
2021/01/04 04:38:16;;;;;;;14.57;12.13;;;2.20;99.90;;;;;;5079018;28;20190;-73
2021/01/04 04:40:42;;;;;;;15.40;13.90;;;2.20;99.90;;;;;;5056490;28;20943;-73
2021/01/04 04:43:15;;;;;;;15.63;13.20;;;2.20;99.90;;;;;;5074233;28;20647;-73
2021/01/04 04:45:41;;;;;;;14.57;13.07;;;2.20;99.90;;;;;;5076121;28;20179;-73
2021/01/04 04:48:10;;;;;;;15.63;14.00;;;2.20;99.90;;;;;;5071299;28;21046;-73
2021/01/04 04:50:53;;;;;;;15.90;13.57;;;2.20;99.90;;;;;;5078219;28;20564;-73
2021/01/04 04:53:43;;;;;;;16.80;15.00;;;2.20;99.90;;;;;;5070531;28;21005;-73
2021/01/04 04:56:17;;;;;;;16.43;14.17;;;2.20;99.90;;;;;;5071286;28;20437;-73
2021/01/04 04:59:24;;;;;;;16.23;14.53;;;2.20;99.90;;;;;;5076478;28;20428;-73
2021/01/04 05:02:23;;;;;;;16.03;14.33;;;2.20;99.90;;;;;;5072494;28;20855;-73
2021/01/04 05:04:52;;;;;;;19.00;16.40;;;2.20;99.90;;;;;;5073609;28;20440;-73
2021/01/04 05:07:30;;;;;;;16.70;15.00;;;2.20;99.90;;;;;;5073797;28;20456;-73
2021/01/04 05:10:04;;;;;;;17.30;15.57;;;2.10;99.90;;;;;;5074969;28;20452;-73
2021/01/04 05:12:47;;;;;;;19.33;16.83;;;2.10;99.90;;;;;;5054379;28;20868;-73
2021/01/04 05:15:33;;;;;;;19.03;16.47;;;2.10;99.90;;;;;;5076205;28;20437;-73
2021/01/04 05:18:10;;;;;;;18.73;16.67;;;2.10;99.90;;;;;;5079576;28;20433;-73
2021/01/04 05:21:18;;;;;;;18.37;16.37;;;2.10;99.90;;;;;;5072295;28;20602;-73
2021/01/04 05:24:38;;;;;;;19.70;16.90;;;2.20;99.90;;;;;;5070666;28;22361;-73
2021/01/04 05:27:32;;;;;;;21.33;17.97;;;2.20;99.90;;;;;;5006049;28;20534;-73
2021/01/04 05:30:22;;;;;;;20.57;17.70;;;2.10;99.90;;;;;;5081097;28;20482;-73
2021/01/04 05:33:29;;;;;;;21.20;18.30;;;2.10;99.90;;;;;;5071812;28;20803;-73
2021/01/04 05:36:18;;;;;;;21.20;17.90;;;2.10;99.90;;;;;;5070136;28;20433;-73
2021/01/04 05:39:11;;;;;;;20.07;17.03;;;2.10;99.90;;;;;;5070528;28;20566;-73
2021/01/04 05:42:10;;;;;;;20.93;18.07;;;2.10;99.90;;;;;;5055861;28;20447;-73
2021/01/04 05:44:59;;;;;;;21.70;18.70;;;2.20;99.90;;;;;;5079015;28;20436;-73
2021/01/04 05:47:38;;;;;;;19.23;16.97;;;2.20;99.90;;;;;;5055687;28;20525;-73
2021/01/04 05:50:17;;;;;;;20.53;18.23;;;2.20;99.90;;;;;;5059152;28;21036;-73
2021/01/04 05:52:46;;;;;;;22.10;18.60;;;2.20;99.90;;;;;;5070693;28;20520;-73
2021/01/04 05:55:14;;;;;;;20.80;18.17;;;2.20;99.90;;;;;;5070216;28;20450;-73
2021/01/04 05:57:45;;;;;;;23.80;19.67;;;2.20;99.90;;;;;;5056806;28;20433;-73
2021/01/04 06:00:13;;;;;;;24.33;18.37;;;2.20;99.90;;;;;;5071105;28;20786;-73
2021/01/04 06:02:38;;;;;;;21.23;18.80;;;2.30;99.90;;;;;;5069569;28;20482;-74
2021/01/04 06:05:13;;;;;;;23.97;20.37;;;2.30;99.90;;;;;;5076749;28;20438;-74
2021/01/04 06:07:41;;;;;;;20.27;18.03;;;2.30;99.90;;;;;;5069967;28;20210;-73
2021/01/04 06:10:17;;;;;;;22.87;18.63;;;2.30;99.90;;;;;;5073445;28;20495;-73
2021/01/04 06:12:46;;;;;;;21.80;19.43;;;2.40;99.90;;;;;;5078043;28;20441;-73
2021/01/04 06:15:12;;;;;;;22.67;19.63;;;2.40;99.90;;;;;;5051699;28;20433;-73
2021/01/04 06:17:42;;;;;;;23.90;20.10;;;2.30;99.90;;;;;;5070205;28;20511;-73
2021/01/04 06:20:49;;;;;;;25.60;21.00;;;2.30;99.90;;;;;;5071939;28;20495;-74
2021/01/04 06:23:20;;;;;;;22.40;19.50;;;2.30;99.90;;;;;;5070796;28;20934;-73
2021/01/04 06:25:54;;;;;;;20.57;18.10;;;2.40;99.90;;;;;;5058722;28;20456;-73
2021/01/04 06:28:19;;;;;;;24.07;20.83;;;2.40;99.90;;;;;;5078270;28;20950;-74
2021/01/04 06:30:45;;;;;;;22.77;18.73;;;2.40;99.90;;;;;;5069553;28;20436;-73
2021/01/04 06:33:19;;;;;;;22.40;20.10;;;2.40;99.90;;;;;;5054835;28;20189;-73
2021/01/04 06:35:44;;;;;;;21.37;19.13;;;2.40;99.90;;;;;;5070897;28;20707;-73
2021/01/04 06:38:25;;;;;;;21.77;19.20;;;2.40;99.90;;;;;;5069099;28;20583;-73
2021/01/04 06:40:51;;;;;;;22.80;19.10;;;2.50;99.90;;;;;;5080460;28;20198;-73
2021/01/04 06:43:33;;;;;;;22.17;19.23;;;2.40;99.90;;;;;;5053313;28;20437;-73
2021/01/04 06:46:20;;;;;;;20.97;17.77;;;2.40;99.90;;;;;;5051422;28;20447;-73
2021/01/04 06:48:54;;;;;;;21.40;17.90;;;2.40;99.90;;;;;;5069537;28;20528;-73
2021/01/04 06:51:46;;;;;;;20.10;16.83;;;2.40;99.90;;;;;;5054016;28;20448;-73
2021/01/04 06:54:42;;;;;;;21.33;18.37;;;2.40;99.90;;;;;;5055894;28;20437;-73
2021/01/04 06:57:28;;;;;;;19.73;17.60;;;2.40;99.90;;;;;;5053638;28;20434;-73
2021/01/04 07:00:32;;;;;;;20.20;18.10;;;2.40;99.90;;;;;;5052839;28;20429;-73
2021/01/04 07:03:05;;;;;;;18.17;16.27;;;2.50;99.90;;;;;;5008485;28;20930;-73
2021/01/04 07:05:34;;;;;;;16.90;15.13;;;2.50;99.90;;;;;;4997672;28;20586;-73
2021/01/04 07:08:18;;;;;;;24.10;16.63;;;2.50;99.90;;;;;;5042145;28;20544;-74
2021/01/04 07:10:50;;;;;;;19.53;15.83;;;2.50;99.90;;;;;;5080591;28;21019;-73
2021/01/04 07:13:48;;;;;;;18.73;14.73;;;2.50;99.90;;;;;;5068986;28;20425;-73
2021/01/04 07:16:17;;;;;;;16.33;14.13;;;2.50;99.90;;;;;;5073914;28;20445;-73
2021/01/04 07:19:01;;;;;;;18.67;15.73;;;2.50;99.90;;;;;;5079169;28;20428;-73
2021/01/04 07:21:33;;;;;;;16.87;15.17;;;2.50;99.90;;;;;;5082983;28;20440;-73
2021/01/04 07:24:21;;;;;;;17.43;15.27;;;2.50;99.90;;;;;;5091749;28;20428;-73
2021/01/04 07:27:02;;;;;;;18.70;15.63;;;2.50;99.90;;;;;;5074693;28;20467;-73
2021/01/04 07:30:05;;;;;;;16.37;14.67;;;2.60;99.90;;;;;;5073345;28;20472;-73
2021/01/04 07:32:47;;;;;;;17.57;15.67;;;2.60;99.90;;;;;;5072063;28;20424;-73
2021/01/04 07:35:40;;;;;;;18.53;15.87;;;2.60;99.90;;;;;;5078615;28;21001;-73
2021/01/04 07:38:18;;;;;;;18.97;15.87;;;2.60;99.90;;;;;;5059725;28;20548;-73
2021/01/04 07:40:52;;;;;;;16.73;14.90;;;2.60;99.90;;;;;;5073462;28;20516;-73
2021/01/04 07:43:17;;;;;;;17.37;15.30;;;2.60;99.90;;;;;;5078572;28;20437;-73
2021/01/04 07:45:55;;;;;;;17.67;15.80;;;2.60;99.90;;;;;;5067418;28;21051;-73
2021/01/04 07:48:29;;;;;;;17.83;16.03;;;2.70;99.90;;;;;;5072130;28;20202;-73
2021/01/04 07:51:11;;;;;;;16.03;14.40;;;2.70;99.90;;;;;;5072338;28;20456;-73
2021/01/04 07:54:01;;;;;;;18.60;16.07;;;2.70;99.90;;;;;;5058802;28;20432;-73
2021/01/04 07:57:05;;;;;;;16.90;15.17;;;2.60;99.90;;;;;;5072043;28;20473;-73
2021/01/04 07:59:55;;;;;;;16.87;15.13;;;2.70;99.90;;;;;;5054645;28;20445;-73
2021/01/04 08:02:31;;;;;;;16.90;15.30;;;2.60;99.90;;;;;;5054732;28;20537;-73
2021/01/04 08:05:21;;;;;;;17.93;15.40;;;2.60;99.90;;;;;;5059504;28;20532;-73
2021/01/04 08:08:18;;;;;;;17.43;15.73;;;2.70;99.90;;;;;;5077291;28;20482;-73
2021/01/04 08:11:16;;;;;;;17.30;15.50;;;2.70;99.90;;;;;;5053015;28;20450;-73
2021/01/04 08:14:20;;;;;;;17.47;15.60;;;2.60;99.90;;;;;;5056251;28;20422;-73
2021/01/04 08:16:54;;;;;;;17.50;15.80;;;2.60;99.90;;;;;;5071763;28;20918;-73
2021/01/04 08:19:23;;;;;;;17.27;15.57;;;2.60;99.90;;;;;;5077992;28;20453;-73
2021/01/04 08:22:04;;;;;;;18.30;16.43;;;2.60;99.90;;;;;;5077214;28;20441;-73
2021/01/04 08:24:33;;;;;;;15.07;13.57;;;2.60;99.90;;;;;;5073110;28;20452;-73
2021/01/04 08:27:21;;;;;;;18.10;16.20;;;2.70;99.90;;;;;;5069781;28;20501;-73
2021/01/04 08:30:13;;;;;;;15.83;14.30;;;2.70;99.90;;;;;;5071705;28;21058;-73
2021/01/04 08:32:50;;;;;;;17.33;15.60;;;2.70;99.90;;;;;;5070745;28;20437;-73
2021/01/04 08:35:36;;;;;;;17.60;15.70;;;2.60;99.90;;;;;;5058384;28;20839;-73
2021/01/04 08:38:25;;;;;;;17.90;16.00;;;2.60;99.90;;;;;;5072255;28;20440;-73
2021/01/04 08:41:21;;;;;;;17.97;16.00;;;2.70;99.90;;;;;;5072937;28;20482;-73
2021/01/04 08:43:49;;;;;;;17.47;15.67;;;2.70;99.90;;;;;;5078593;28;20441;-73
2021/01/04 08:46:29;;;;;;;18.57;16.73;;;2.70;99.90;;;;;;5072764;28;20495;-73
2021/01/04 08:49:17;;;;;;;17.60;15.70;;;2.70;99.90;;;;;;5073352;28;20518;-73
2021/01/04 08:51:45;;;;;;;18.97;15.70;;;2.70;99.90;;;;;;5061341;28;20438;-73
2021/01/04 08:54:10;;;;;;;16.90;15.20;;;2.70;99.90;;;;;;5070594;28;20520;-73
2021/01/04 08:56:43;;;;;;;15.30;13.80;;;2.70;99.90;;;;;;5052796;28;20532;-73
2021/01/04 08:59:17;;;;;;;16.67;15.07;;;2.70;99.90;;;;;;5071676;28;20263;-73
2021/01/04 09:01:56;;;;;;;19.37;17.20;;;2.70;99.90;;;;;;5071137;28;20445;-73
2021/01/04 09:04:38;;;;;;;15.90;14.30;;;2.70;99.90;;;;;;5072000;28;20441;-73
2021/01/04 09:07:10;;;;;;;16.27;13.63;;;2.80;99.90;;;;;;5071342;28;20528;-73
2021/01/04 09:10:14;;;;;;;13.83;12.40;;;2.80;99.90;;;;;;5058987;28;20465;-73
2021/01/04 09:12:47;;;;;;;14.73;11.77;;;2.80;99.90;;;;;;5070077;28;20437;-73
2021/01/04 09:15:19;;;;;;;14.43;12.90;;;2.80;99.90;;;;;;5070352;28;20500;-73
2021/01/04 09:17:45;;;;;;;15.87;14.33;;;2.80;99.90;;;;;;5056124;28;20457;-73
2021/01/04 09:20:25;;;;;;;14.97;13.47;;;2.80;99.90;;;;;;5073592;28;20962;-73
2021/01/04 09:23:04;;;;;;;14.03;12.70;;;2.80;99.90;;;;;;5069906;28;20198;-73
2021/01/04 09:25:45;;;;;;;14.70;13.20;;;2.80;99.90;;;;;;5052499;28;20522;-73
2021/01/04 09:28:12;;;;;;;14.53;13.13;;;2.90;99.90;;;;;;5069501;28;20462;-73
2021/01/04 09:30:38;;;;;;;15.33;13.57;;;2.90;99.90;;;;;;5053237;28;20513;-73
2021/01/04 09:33:11;;;;;;;15.57;13.97;;;2.80;99.90;;;;;;5072174;28;20448;-73
2021/01/04 09:35:37;;;;;;;16.30;14.70;;;2.80;99.90;;;;;;5072414;28;20184;-73
2021/01/04 09:38:17;;;;;;;16.03;14.40;;;2.80;99.90;;;;;;5072433;28;20478;-73
2021/01/04 09:40:49;;;;;;;15.23;13.63;;;2.90;99.90;;;;;;5074074;28;20187;-73
2021/01/04 09:43:14;;;;;;;14.87;13.27;;;2.90;99.90;;;;;;5069550;28;20997;-73
2021/01/04 09:45:40;;;;;;;15.37;13.67;;;2.90;99.90;;;;;;5052034;28;20450;-73
2021/01/04 09:48:13;;;;;;;15.33;13.83;;;2.90;99.90;;;;;;5074831;28;20215;-73
2021/01/04 09:50:59;;;;;;;14.67;13.17;;;2.90;99.90;;;;;;5072706;28;20278;-73
2021/01/04 09:53:32;;;;;;;12.60;11.30;;;2.90;99.90;;;;;;5071434;28;20469;-73
2021/01/04 09:56:04;;;;;;;14.10;12.77;;;2.90;99.90;;;;;;5070294;28;20823;-73
2021/01/04 09:58:29;;;;;;;12.80;11.50;;;2.90;99.90;;;;;;5069284;28;20477;-73
2021/01/04 10:01:06;;;;;;;14.50;10.90;;;2.90;99.90;;;;;;5053471;28;20482;-73
2021/01/04 10:03:32;;;;;;;13.00;11.70;;;2.90;99.90;;;;;;5054781;28;20187;-73
2021/01/04 10:05:58;;;;;;;12.67;11.37;;;2.90;99.90;;;;;;5078094;28;20426;-73
2021/01/04 10:08:26;;;;;;;11.70;10.60;;;2.90;99.90;;;;;;5072221;28;20669;-73
2021/01/04 10:11:05;;;;;;;12.43;11.13;;;3.00;99.90;;;;;;5052425;28;20278;-73
2021/01/04 10:13:34;;;;;;;11.67;10.47;;;3.00;99.90;;;;;;5062520;28;20444;-73
2021/01/04 10:16:04;;;;;;;11.73;10.57;;;3.00;99.90;;;;;;5071282;28;20495;-73
2021/01/04 10:18:55;;;;;;;11.97;10.77;;;3.00;99.90;;;;;;5074289;28;20517;-73
2021/01/04 10:21:34;;;;;;;16.43;10.73;;;3.00;99.90;;;;;;5072358;28;20529;-73
2021/01/04 10:24:04;;;;;;;11.07;10.07;;;3.00;99.90;;;;;;5069623;28;20557;-73
2021/01/04 10:26:37;;;;;;;11.50;10.40;;;3.00;99.90;;;;;;5053276;28;20440;-73
2021/01/04 10:29:05;;;;;;;11.47;10.37;;;3.00;99.90;;;;;;5071306;28;20461;-73
2021/01/04 10:31:31;;;;;;;11.97;10.77;;;3.00;99.90;;;;;;5074864;28;20469;-73
2021/01/04 10:34:06;;;;;;;11.10;10.00;;;3.00;99.90;;;;;;5073156;28;20520;-73
2021/01/04 10:36:33;;;;;;;12.03;10.90;;;3.00;99.90;;;;;;5071391;28;20191;-73
2021/01/04 10:39:15;;;;;;;11.37;10.27;;;3.00;99.90;;;;;;5072221;28;20437;-73
2021/01/04 10:41:41;;;;;;;12.07;10.97;;;3.00;99.90;;;;;;5070832;28;20453;-73
2021/01/04 10:44:20;;;;;;;11.67;10.37;;;3.00;99.90;;;;;;5076776;28;20926;-73
2021/01/04 10:47:01;;;;;;;10.97;9.97;;;3.00;99.90;;;;;;5068324;28;20214;-73
2021/01/04 10:49:30;;;;;;;11.00;9.90;;;3.00;99.90;;;;;;5067341;28;20483;-73
2021/01/04 10:51:57;;;;;;;11.77;10.57;;;3.10;99.90;;;;;;5067873;28;20941;-73
2021/01/04 10:54:36;;;;;;;10.50;9.60;;;3.10;99.90;;;;;;5067135;28;20614;-73
2021/01/04 10:57:12;;;;;;;10.60;9.70;;;3.10;99.90;;;;;;5075530;28;20495;-73
2021/01/04 10:59:56;;;;;;;11.40;10.30;;;3.10;99.90;;;;;;5072597;28;21160;-73
2021/01/04 11:02:22;;;;;;;12.10;9.90;;;3.00;99.90;;;;;;5067790;28;21151;-73
2021/01/04 11:04:53;;;;;;;12.17;11.07;;;3.00;99.90;;;;;;5072487;28;20527;-73
2021/01/04 11:07:28;;;;;;;10.90;9.80;;;3.00;99.90;;;;;;5068563;28;20543;-73
2021/01/04 11:09:53;;;;;;;11.47;10.40;;;3.00;99.90;;;;;;5049699;28;20465;-73
2021/01/04 11:12:21;;;;;;;11.00;9.97;;;3.00;99.90;;;;;;5063977;28;20657;-73
2021/01/04 11:15:00;;;;;;;12.00;10.80;;;3.10;99.90;;;;;;5056764;28;20187;-73
2021/01/04 11:17:27;;;;;;;11.73;10.53;;;3.00;99.90;;;;;;5069997;28;20445;-73
2021/01/04 11:19:53;;;;;;;10.20;9.30;;;3.00;99.90;;;;;;5069549;28;20525;-73
2021/01/04 11:22:26;;;;;;;10.47;9.37;;;3.10;99.90;;;;;;5049379;28;20449;-73
2021/01/04 11:24:52;;;;;;;10.77;9.70;;;3.10;99.90;;;;;;5066646;28;20996;-73
2021/01/04 11:27:19;;;;;;;10.53;9.67;;;3.10;99.90;;;;;;5071395;28;20442;-73
2021/01/04 11:29:46;;;;;;;11.40;10.23;;;3.20;99.90;;;;;;5055503;28;20465;-73
2021/01/04 11:32:13;;;;;;;10.03;9.03;;;3.20;99.90;;;;;;5068230;28;20446;-73
2021/01/04 11:34:45;;;;;;;11.00;10.00;;;3.20;99.90;;;;;;5055718;28;20522;-73
2021/01/04 11:37:11;;;;;;;9.53;8.63;;;3.20;99.90;;;;;;5074548;28;20466;-73
2021/01/04 11:39:37;;;;;;;11.60;9.20;;;3.20;99.90;;;;;;5069514;28;20518;-73
2021/01/04 11:42:04;;;;;;;9.77;8.87;;;3.20;99.90;;;;;;5074869;28;20524;-74
2021/01/04 11:44:30;;;;;;;8.87;8.07;;;3.20;99.90;;;;;;5071732;28;20775;-73
2021/01/04 11:46:56;;;;;;;9.37;8.47;;;3.30;99.90;;;;;;5074924;28;20519;-74
2021/01/04 11:49:21;;;;;;;10.47;9.47;;;3.30;99.90;;;;;;5076575;28;20211;-74
2021/01/04 11:51:51;;;;;;;8.40;7.63;;;3.30;99.90;;;;;;5070107;28;20187;-74
2021/01/04 11:54:17;;;;;;;9.93;9.03;;;3.30;99.90;;;;;;5069385;28;20204;-74
2021/01/04 11:56:42;;;;;;;9.73;8.73;;;3.30;99.90;;;;;;5069729;28;20799;-74
2021/01/04 11:59:08;;;;;;;9.70;8.80;;;3.30;99.90;;;;;;5059660;28;20537;-74
2021/01/04 12:01:35;;;;;;;8.80;7.97;;;3.30;99.90;;;;;;5070383;28;20201;-74
2021/01/04 12:04:02;;;;;;;9.43;8.50;;;3.20;99.90;;;;;;5056343;28;20480;-74
2021/01/04 12:06:28;;;;;;;9.47;8.47;;;3.20;99.90;;;;;;5073544;28;20520;-74
2021/01/04 12:08:53;;;;;;;9.93;9.00;;;3.30;99.90;;;;;;5054182;28;20561;-74
2021/01/04 12:11:21;;;;;;;10.13;9.20;;;3.30;99.90;;;;;;5076172;28;20724;-74
2021/01/04 12:13:50;;;;;;;9.00;8.10;;;3.20;99.90;;;;;;5057668;28;20243;-74
2021/01/04 12:16:16;;;;;;;9.33;8.43;;;3.20;99.90;;;;;;5075374;28;20803;-74
2021/01/04 12:18:42;;;;;;;9.27;8.47;;;3.30;99.90;;;;;;5076033;28;20525;-74
2021/01/04 12:21:08;;;;;;;8.60;7.80;;;3.30;99.90;;;;;;5057725;28;21035;-74
2021/01/04 12:23:33;;;;;;;8.37;7.57;;;3.30;99.90;;;;;;5072078;28;20469;-74
2021/01/04 12:25:59;;;;;;;8.80;8.00;;;3.30;99.90;;;;;;5077661;28;20187;-74
2021/01/04 12:28:25;;;;;;;8.97;8.17;;;3.30;99.90;;;;;;5055558;28;20210;-74
2021/01/04 12:30:50;;;;;;;9.13;8.23;;;3.30;99.90;;;;;;5071473;28;20194;-74
2021/01/04 12:33:16;;;;;;;9.50;8.40;;;3.30;99.90;;;;;;5070550;28;20203;-74
2021/01/04 12:35:41;;;;;;;8.63;7.83;;;3.30;99.90;;;;;;5052549;28;20184;-74
2021/01/04 12:38:07;;;;;;;9.17;8.27;;;3.40;99.90;;;;;;5072959;28;20191;-74
2021/01/04 12:40:34;;;;;;;9.57;8.57;;;3.40;99.90;;;;;;5080883;28;20192;-74
2021/01/04 12:43:01;;;;;;;7.80;7.00;;;3.40;99.90;;;;;;5073136;28;20426;-74
2021/01/04 12:45:30;;;;;;;7.73;6.93;;;3.40;99.90;;;;;;5070823;28;20445;-74
2021/01/04 12:47:56;;;;;;;8.43;7.27;;;3.50;99.90;;;;;;5062730;28;20444;-74
2021/01/04 12:50:22;;;;;;;9.40;8.50;;;3.50;99.90;;;;;;5074074;28;20930;-74
2021/01/04 12:52:49;;;;;;;9.20;8.30;;;3.50;99.90;;;;;;5070481;28;20184;-74
2021/01/04 12:55:17;;;;;;;8.87;8.03;;;3.50;99.90;;;;;;5059979;28;20570;-74
2021/01/04 12:57:44;;;;;;;9.33;8.43;;;3.50;99.90;;;;;;5070847;28;20942;-74
2021/01/04 13:00:11;;;;;;;8.50;7.63;;;3.50;99.90;;;;;;5070747;28;20469;-74
2021/01/04 13:02:37;;;;;;;9.30;7.80;;;3.50;99.90;;;;;;5053813;28;20837;-74
2021/01/04 13:05:03;;;;;;;8.90;8.00;;;3.50;99.90;;;;;;5060714;28;20795;-74
2021/01/04 13:07:29;;;;;;;8.13;7.30;;;3.60;99.90;;;;;;5071496;28;20184;-74
2021/01/04 13:09:54;;;;;;;10.17;9.13;;;3.60;99.90;;;;;;5060479;28;20786;-74
2021/01/04 13:12:20;;;;;;;8.33;7.47;;;3.60;99.90;;;;;;5070238;28;20450;-73
2021/01/04 13:14:46;;;;;;;9.43;8.20;;;3.70;99.90;;;;;;5071149;28;20187;-73
2021/01/04 13:17:13;;;;;;;8.40;7.60;;;3.70;99.90;;;;;;5071370;28;20192;-74
2021/01/04 13:19:38;;;;;;;8.87;8.07;;;3.70;99.90;;;;;;5070908;28;20887;-74
2021/01/04 13:22:04;;;;;;;17.07;8.83;;;3.80;99.90;;;;;;5072805;28;20464;-74
2021/01/04 13:24:30;;;;;;;10.00;8.97;;;3.80;99.90;;;;;;5073169;28;20282;-73
2021/01/04 13:26:57;;;;;;;8.70;7.80;;;3.80;99.90;;;;;;5074739;28;20175;-73